ΕΜΥ, Εθνική Μετεωρολογική Υπηρεσία - Δελτία Καιρού, Προγνώσεις

ΑΕΡΟΝΑΥΤΙΛΙΑ

GREEK AIRPORTS CODES

LGNX 150850Z 35008KT CAVOK 21/16 Q1018=

EUROPEAN AIRPORTS CODES

LFPO 151200Z 25020KT 9999 BKN038 BKN043 BKN068 14/06 Q1013TEMPO -RA=